sensor_id;sensor_type;location;lat;lon;timestamp;P1;durP1;ratioP1;P2;durP2;ratioP2
59072;SDS011;44859;51.934;15.554;2022-12-13T00:01:57;16.30;;;6.10;;
59072;SDS011;44859;51.934;15.554;2022-12-13T00:04:26;16.50;;;5.20;;
59072;SDS011;44859;51.934;15.554;2022-12-13T00:06:54;16.30;;;5.60;;
59072;SDS011;44859;51.934;15.554;2022-12-13T00:09:22;16.50;;;5.40;;
59072;SDS011;44859;51.934;15.554;2022-12-13T00:11:51;16.30;;;5.20;;
59072;SDS011;44859;51.934;15.554;2022-12-13T00:14:20;13.80;;;5.30;;
59072;SDS011;44859;51.934;15.554;2022-12-13T00:16:48;15.00;;;5.40;;
59072;SDS011;44859;51.934;15.554;2022-12-13T00:19:17;12.00;;;4.20;;
59072;SDS011;44859;51.934;15.554;2022-12-13T00:21:46;14.30;;;4.80;;
59072;SDS011;44859;51.934;15.554;2022-12-13T00:24:14;14.50;;;5.00;;
59072;SDS011;44859;51.934;15.554;2022-12-13T00:26:42;14.00;;;5.30;;
59072;SDS011;44859;51.934;15.554;2022-12-13T00:29:11;15.80;;;5.20;;
59072;SDS011;44859;51.934;15.554;2022-12-13T00:31:40;11.60;;;3.70;;
59072;SDS011;44859;51.934;15.554;2022-12-13T00:34:27;14.90;;;4.60;;
59072;SDS011;44859;51.934;15.554;2022-12-13T00:36:56;14.00;;;4.90;;
59072;SDS011;44859;51.934;15.554;2022-12-13T00:39:27;15.70;;;5.30;;
59072;SDS011;44859;51.934;15.554;2022-12-13T00:41:56;12.20;;;4.30;;
59072;SDS011;44859;51.934;15.554;2022-12-13T00:44:24;15.40;;;5.00;;
59072;SDS011;44859;51.934;15.554;2022-12-13T00:46:53;14.90;;;5.00;;
59072;SDS011;44859;51.934;15.554;2022-12-13T00:49:21;14.50;;;4.90;;
59072;SDS011;44859;51.934;15.554;2022-12-13T00:51:50;13.20;;;4.30;;
59072;SDS011;44859;51.934;15.554;2022-12-13T00:54:19;12.20;;;4.50;;
59072;SDS011;44859;51.934;15.554;2022-12-13T00:56:49;14.30;;;4.80;;
59072;SDS011;44859;51.934;15.554;2022-12-13T00:59:18;16.50;;;5.20;;
59072;SDS011;44859;51.934;15.554;2022-12-13T01:01:46;16.10;;;5.40;;
59072;SDS011;44859;51.934;15.554;2022-12-13T01:04:14;13.80;;;5.00;;
59072;SDS011;44859;51.934;15.554;2022-12-13T01:06:43;12.20;;;4.60;;
59072;SDS011;44859;51.934;15.554;2022-12-13T01:09:17;15.80;;;5.30;;
59072;SDS011;44859;51.934;15.554;2022-12-13T01:11:48;14.30;;;5.10;;
59072;SDS011;44859;51.934;15.554;2022-12-13T01:14:17;15.40;;;5.50;;
59072;SDS011;44859;51.934;15.554;2022-12-13T01:16:45;16.30;;;5.30;;
59072;SDS011;44859;51.934;15.554;2022-12-13T01:19:14;16.00;;;5.80;;
59072;SDS011;44859;51.934;15.554;2022-12-13T01:21:43;16.10;;;5.30;;
59072;SDS011;44859;51.934;15.554;2022-12-13T01:24:12;14.90;;;5.60;;
59072;SDS011;44859;51.934;15.554;2022-12-13T01:26:40;16.10;;;5.40;;
59072;SDS011;44859;51.934;15.554;2022-12-13T01:29:08;16.00;;;5.50;;
59072;SDS011;44859;51.934;15.554;2022-12-13T01:31:38;17.40;;;5.80;;
59072;SDS011;44859;51.934;15.554;2022-12-13T01:34:12;16.70;;;5.40;;
59072;SDS011;44859;51.934;15.554;2022-12-13T01:36:42;16.00;;;5.40;;
59072;SDS011;44859;51.934;15.554;2022-12-13T01:39:13;17.60;;;6.20;;
59072;SDS011;44859;51.934;15.554;2022-12-13T01:41:48;17.20;;;6.00;;
59072;SDS011;44859;51.934;15.554;2022-12-13T01:50:06;17.10;;;6.20;;
59072;SDS011;44859;51.934;15.554;2022-12-13T01:52:56;17.60;;;6.20;;
59072;SDS011;44859;51.934;15.554;2022-12-13T01:55:28;19.90;;;7.00;;
59072;SDS011;44859;51.934;15.554;2022-12-13T02:00:38;18.70;;;6.90;;
59072;SDS011;44859;51.934;15.554;2022-12-13T02:03:08;19.90;;;7.40;;
59072;SDS011;44859;51.934;15.554;2022-12-13T02:08:37;20.30;;;7.20;;
59072;SDS011;44859;51.934;15.554;2022-12-13T02:11:09;20.40;;;7.20;;
59072;SDS011;44859;51.934;15.554;2022-12-13T02:13:38;19.50;;;6.50;;
59072;SDS011;44859;51.934;15.554;2022-12-13T02:16:08;17.30;;;6.60;;
59072;SDS011;44859;51.934;15.554;2022-12-13T02:30:33;19.00;;;7.10;;
59072;SDS011;44859;51.934;15.554;2022-12-13T02:41:47;17.10;;;6.60;;
59072;SDS011;44859;51.934;15.554;2022-12-13T02:47:11;19.00;;;7.10;;
59072;SDS011;44859;51.934;15.554;2022-12-13T02:49:50;19.40;;;7.00;;
59072;SDS011;44859;51.934;15.554;2022-12-13T02:52:24;18.90;;;6.80;;
59072;SDS011;44859;51.934;15.554;2022-12-13T02:54:55;18.30;;;6.70;;
59072;SDS011;44859;51.934;15.554;2022-12-13T02:57:31;17.30;;;6.00;;
59072;SDS011;44859;51.934;15.554;2022-12-13T03:11:21;17.20;;;6.70;;
59072;SDS011;44859;51.934;15.554;2022-12-13T03:14:16;17.20;;;6.30;;
59072;SDS011;44859;51.934;15.554;2022-12-13T03:16:49;20.10;;;7.10;;
59072;SDS011;44859;51.934;15.554;2022-12-13T03:19:21;18.20;;;7.30;;
59072;SDS011;44859;51.934;15.554;2022-12-13T03:21:50;17.00;;;6.00;;
59072;SDS011;44859;51.934;15.554;2022-12-13T03:24:19;17.50;;;6.50;;
59072;SDS011;44859;51.934;15.554;2022-12-13T03:26:48;18.60;;;6.50;;
59072;SDS011;44859;51.934;15.554;2022-12-13T03:29:18;17.60;;;5.80;;
59072;SDS011;44859;51.934;15.554;2022-12-13T03:31:52;15.60;;;5.50;;
59072;SDS011;44859;51.934;15.554;2022-12-13T03:34:20;16.60;;;6.30;;
59072;SDS011;44859;51.934;15.554;2022-12-13T03:36:51;18.00;;;6.50;;
59072;SDS011;44859;51.934;15.554;2022-12-13T03:39:20;16.50;;;6.40;;
59072;SDS011;44859;51.934;15.554;2022-12-13T03:41:49;17.70;;;6.40;;
59072;SDS011;44859;51.934;15.554;2022-12-13T03:44:18;17.40;;;6.70;;
59072;SDS011;44859;51.934;15.554;2022-12-13T03:46:46;17.60;;;6.60;;
59072;SDS011;44859;51.934;15.554;2022-12-13T03:49:14;16.30;;;5.30;;
59072;SDS011;44859;51.934;15.554;2022-12-13T03:51:44;16.80;;;6.80;;
59072;SDS011;44859;51.934;15.554;2022-12-13T03:54:12;18.30;;;6.70;;
59072;SDS011;44859;51.934;15.554;2022-12-13T03:56:40;15.50;;;5.80;;
59072;SDS011;44859;51.934;15.554;2022-12-13T03:59:08;17.00;;;6.50;;
59072;SDS011;44859;51.934;15.554;2022-12-13T04:01:37;17.10;;;6.20;;
59072;SDS011;44859;51.934;15.554;2022-12-13T04:04:05;17.20;;;7.20;;
59072;SDS011;44859;51.934;15.554;2022-12-13T04:06:33;17.30;;;6.10;;
59072;SDS011;44859;51.934;15.554;2022-12-13T04:09:01;16.50;;;5.60;;
59072;SDS011;44859;51.934;15.554;2022-12-13T04:11:29;16.20;;;5.90;;
59072;SDS011;44859;51.934;15.554;2022-12-13T04:14:16;16.00;;;5.70;;
59072;SDS011;44859;51.934;15.554;2022-12-13T04:16:50;16.00;;;6.10;;
59072;SDS011;44859;51.934;15.554;2022-12-13T04:19:19;18.40;;;6.50;;
59072;SDS011;44859;51.934;15.554;2022-12-13T04:21:51;14.60;;;5.10;;
59072;SDS011;44859;51.934;15.554;2022-12-13T04:24:22;18.20;;;6.30;;
59072;SDS011;44859;51.934;15.554;2022-12-13T04:26:59;15.20;;;5.50;;
59072;SDS011;44859;51.934;15.554;2022-12-13T04:29:28;17.00;;;6.20;;
59072;SDS011;44859;51.934;15.554;2022-12-13T04:32:04;17.10;;;6.20;;
59072;SDS011;44859;51.934;15.554;2022-12-13T04:37:39;15.60;;;6.00;;
59072;SDS011;44859;51.934;15.554;2022-12-13T04:40:10;16.00;;;6.40;;
59072;SDS011;44859;51.934;15.554;2022-12-13T04:42:38;16.70;;;5.80;;
59072;SDS011;44859;51.934;15.554;2022-12-13T04:45:08;15.70;;;5.20;;
59072;SDS011;44859;51.934;15.554;2022-12-13T04:47:42;14.70;;;5.60;;
59072;SDS011;44859;51.934;15.554;2022-12-13T04:50:11;17.10;;;6.50;;
59072;SDS011;44859;51.934;15.554;2022-12-13T04:52:39;16.90;;;6.40;;
59072;SDS011;44859;51.934;15.554;2022-12-13T04:55:07;17.30;;;6.70;;
59072;SDS011;44859;51.934;15.554;2022-12-13T04:57:36;17.90;;;6.50;;
59072;SDS011;44859;51.934;15.554;2022-12-13T05:00:06;17.20;;;5.80;;
59072;SDS011;44859;51.934;15.554;2022-12-13T05:02:36;15.10;;;5.80;;
59072;SDS011;44859;51.934;15.554;2022-12-13T05:05:05;17.90;;;5.60;;
59072;SDS011;44859;51.934;15.554;2022-12-13T05:07:36;15.50;;;5.40;;
59072;SDS011;44859;51.934;15.554;2022-12-13T05:10:09;13.30;;;5.30;;
59072;SDS011;44859;51.934;15.554;2022-12-13T05:12:39;15.80;;;6.20;;
59072;SDS011;44859;51.934;15.554;2022-12-13T05:15:07;16.80;;;5.90;;
59072;SDS011;44859;51.934;15.554;2022-12-13T05:17:36;17.20;;;6.40;;
59072;SDS011;44859;51.934;15.554;2022-12-13T05:20:04;16.20;;;5.60;;
59072;SDS011;44859;51.934;15.554;2022-12-13T05:22:32;15.80;;;6.10;;
59072;SDS011;44859;51.934;15.554;2022-12-13T05:25:00;16.50;;;5.90;;
59072;SDS011;44859;51.934;15.554;2022-12-13T05:27:29;16.70;;;5.40;;
59072;SDS011;44859;51.934;15.554;2022-12-13T05:29:59;16.10;;;5.70;;
59072;SDS011;44859;51.934;15.554;2022-12-13T05:32:34;14.30;;;5.20;;
59072;SDS011;44859;51.934;15.554;2022-12-13T05:35:12;16.30;;;5.70;;
59072;SDS011;44859;51.934;15.554;2022-12-13T05:37:50;15.60;;;5.60;;
59072;SDS011;44859;51.934;15.554;2022-12-13T05:40:21;13.70;;;4.70;;
59072;SDS011;44859;51.934;15.554;2022-12-13T05:42:51;13.70;;;4.80;;
59072;SDS011;44859;51.934;15.554;2022-12-13T05:45:29;16.80;;;6.50;;
59072;SDS011;44859;51.934;15.554;2022-12-13T05:47:58;13.90;;;5.00;;
59072;SDS011;44859;51.934;15.554;2022-12-13T05:50:27;15.60;;;5.70;;
59072;SDS011;44859;51.934;15.554;2022-12-13T05:52:55;16.00;;;6.20;;
59072;SDS011;44859;51.934;15.554;2022-12-13T05:55:23;16.40;;;5.70;;
59072;SDS011;44859;51.934;15.554;2022-12-13T05:57:52;16.50;;;6.00;;
59072;SDS011;44859;51.934;15.554;2022-12-13T06:00:29;14.50;;;5.90;;
59072;SDS011;44859;51.934;15.554;2022-12-13T06:02:58;15.70;;;6.10;;
59072;SDS011;44859;51.934;15.554;2022-12-13T06:05:29;17.80;;;6.10;;
59072;SDS011;44859;51.934;15.554;2022-12-13T06:07:58;19.20;;;6.20;;
59072;SDS011;44859;51.934;15.554;2022-12-13T06:10:27;18.50;;;6.20;;
59072;SDS011;44859;51.934;15.554;2022-12-13T06:13:02;15.50;;;5.90;;
59072;SDS011;44859;51.934;15.554;2022-12-13T06:15:52;18.90;;;6.70;;
59072;SDS011;44859;51.934;15.554;2022-12-13T06:18:29;18.20;;;7.70;;
59072;SDS011;44859;51.934;15.554;2022-12-13T06:21:00;18.70;;;6.40;;
59072;SDS011;44859;51.934;15.554;2022-12-13T06:23:31;18.90;;;6.40;;
59072;SDS011;44859;51.934;15.554;2022-12-13T06:26:04;18.50;;;7.20;;
59072;SDS011;44859;51.934;15.554;2022-12-13T06:28:34;17.50;;;6.80;;
59072;SDS011;44859;51.934;15.554;2022-12-13T06:31:03;17.50;;;7.00;;
59072;SDS011;44859;51.934;15.554;2022-12-13T06:33:32;17.70;;;6.20;;
59072;SDS011;44859;51.934;15.554;2022-12-13T06:36:05;17.80;;;6.10;;
59072;SDS011;44859;51.934;15.554;2022-12-13T06:38:35;18.50;;;6.90;;
59072;SDS011;44859;51.934;15.554;2022-12-13T06:41:11;18.00;;;6.70;;
59072;SDS011;44859;51.934;15.554;2022-12-13T06:43:45;19.00;;;7.60;;
59072;SDS011;44859;51.934;15.554;2022-12-13T06:46:15;18.90;;;7.40;;
59072;SDS011;44859;51.934;15.554;2022-12-13T06:48:43;30.00;;;13.80;;
59072;SDS011;44859;51.934;15.554;2022-12-13T06:51:12;112.40;;;59.90;;
59072;SDS011;44859;51.934;15.554;2022-12-13T06:53:49;72.80;;;29.30;;
59072;SDS011;44859;51.934;15.554;2022-12-13T06:56:18;136.70;;;58.50;;
59072;SDS011;44859;51.934;15.554;2022-12-13T06:58:46;24.10;;;9.50;;
59072;SDS011;44859;51.934;15.554;2022-12-13T07:01:15;21.40;;;7.70;;
59072;SDS011;44859;51.934;15.554;2022-12-13T07:03:54;19.50;;;7.40;;
59072;SDS011;44859;51.934;15.554;2022-12-13T07:06:24;19.80;;;7.30;;
59072;SDS011;44859;51.934;15.554;2022-12-13T07:08:54;19.40;;;6.80;;
59072;SDS011;44859;51.934;15.554;2022-12-13T07:11:25;21.50;;;7.80;;
59072;SDS011;44859;51.934;15.554;2022-12-13T07:13:55;19.00;;;6.90;;
59072;SDS011;44859;51.934;15.554;2022-12-13T07:16:29;20.40;;;7.80;;
59072;SDS011;44859;51.934;15.554;2022-12-13T07:18:58;18.70;;;7.10;;
59072;SDS011;44859;51.934;15.554;2022-12-13T07:21:29;19.30;;;6.70;;
59072;SDS011;44859;51.934;15.554;2022-12-13T07:23:57;14.00;;;5.50;;
59072;SDS011;44859;51.934;15.554;2022-12-13T07:26:26;17.00;;;6.40;;
59072;SDS011;44859;51.934;15.554;2022-12-13T07:28:54;19.40;;;7.30;;
59072;SDS011;44859;51.934;15.554;2022-12-13T07:31:24;18.50;;;6.60;;
59072;SDS011;44859;51.934;15.554;2022-12-13T07:33:53;19.60;;;7.60;;
59072;SDS011;44859;51.934;15.554;2022-12-13T07:36:22;20.00;;;7.30;;
59072;SDS011;44859;51.934;15.554;2022-12-13T07:38:51;22.00;;;9.10;;
59072;SDS011;44859;51.934;15.554;2022-12-13T07:41:22;17.20;;;6.80;;
59072;SDS011;44859;51.934;15.554;2022-12-13T07:43:52;19.60;;;7.40;;
59072;SDS011;44859;51.934;15.554;2022-12-13T07:46:22;19.50;;;7.60;;
59072;SDS011;44859;51.934;15.554;2022-12-13T07:49:00;16.50;;;5.80;;
59072;SDS011;44859;51.934;15.554;2022-12-13T07:51:31;17.60;;;6.50;;
59072;SDS011;44859;51.934;15.554;2022-12-13T07:54:03;19.10;;;6.90;;
59072;SDS011;44859;51.934;15.554;2022-12-13T07:56:34;18.30;;;7.00;;
59072;SDS011;44859;51.934;15.554;2022-12-13T07:59:03;22.00;;;8.60;;
59072;SDS011;44859;51.934;15.554;2022-12-13T08:01:31;17.80;;;6.90;;
59072;SDS011;44859;51.934;15.554;2022-12-13T08:04:03;18.20;;;6.50;;
59072;SDS011;44859;51.934;15.554;2022-12-13T08:06:33;23.00;;;8.30;;
59072;SDS011;44859;51.934;15.554;2022-12-13T08:09:05;20.50;;;6.80;;
59072;SDS011;44859;51.934;15.554;2022-12-13T08:11:33;22.90;;;8.40;;
59072;SDS011;44859;51.934;15.554;2022-12-13T08:14:01;26.60;;;9.80;;
59072;SDS011;44859;51.934;15.554;2022-12-13T08:16:30;20.40;;;7.60;;
59072;SDS011;44859;51.934;15.554;2022-12-13T08:18:58;20.70;;;7.50;;
59072;SDS011;44859;51.934;15.554;2022-12-13T08:21:35;22.00;;;8.30;;
59072;SDS011;44859;51.934;15.554;2022-12-13T08:24:29;21.60;;;8.80;;
59072;SDS011;44859;51.934;15.554;2022-12-13T08:26:59;22.00;;;8.30;;
59072;SDS011;44859;51.934;15.554;2022-12-13T08:29:32;21.50;;;8.40;;
59072;SDS011;44859;51.934;15.554;2022-12-13T08:32:07;22.60;;;8.00;;
59072;SDS011;44859;51.934;15.554;2022-12-13T08:34:39;21.40;;;8.30;;
59072;SDS011;44859;51.934;15.554;2022-12-13T08:37:08;20.30;;;7.00;;
59072;SDS011;44859;51.934;15.554;2022-12-13T08:39:37;22.00;;;7.10;;
59072;SDS011;44859;51.934;15.554;2022-12-13T08:42:08;19.70;;;7.60;;
59072;SDS011;44859;51.934;15.554;2022-12-13T08:44:44;21.80;;;9.30;;
59072;SDS011;44859;51.934;15.554;2022-12-13T08:47:18;23.90;;;8.40;;
59072;SDS011;44859;51.934;15.554;2022-12-13T08:49:55;23.00;;;8.50;;
59072;SDS011;44859;51.934;15.554;2022-12-13T08:52:32;21.20;;;8.30;;
59072;SDS011;44859;51.934;15.554;2022-12-13T08:55:08;21.50;;;7.40;;
59072;SDS011;44859;51.934;15.554;2022-12-13T08:57:39;25.50;;;10.20;;
59072;SDS011;44859;51.934;15.554;2022-12-13T09:00:09;25.20;;;9.40;;
59072;SDS011;44859;51.934;15.554;2022-12-13T09:02:40;23.00;;;8.50;;
59072;SDS011;44859;51.934;15.554;2022-12-13T09:05:10;20.50;;;7.40;;
59072;SDS011;44859;51.934;15.554;2022-12-13T09:07:59;27.60;;;11.20;;
59072;SDS011;44859;51.934;15.554;2022-12-13T09:10:54;25.30;;;10.40;;
59072;SDS011;44859;51.934;15.554;2022-12-13T09:13:27;24.80;;;10.40;;
59072;SDS011;44859;51.934;15.554;2022-12-13T09:16:07;20.10;;;8.00;;
59072;SDS011;44859;51.934;15.554;2022-12-13T09:18:41;23.20;;;9.30;;
59072;SDS011;44859;51.934;15.554;2022-12-13T09:21:10;25.90;;;9.70;;
59072;SDS011;44859;51.934;15.554;2022-12-13T09:23:49;27.10;;;10.40;;
59072;SDS011;44859;51.934;15.554;2022-12-13T09:26:18;24.90;;;9.40;;
59072;SDS011;44859;51.934;15.554;2022-12-13T09:28:52;21.80;;;9.20;;
59072;SDS011;44859;51.934;15.554;2022-12-13T09:31:20;23.80;;;9.20;;
59072;SDS011;44859;51.934;15.554;2022-12-13T09:33:49;24.00;;;9.50;;
59072;SDS011;44859;51.934;15.554;2022-12-13T09:36:19;24.40;;;9.30;;
59072;SDS011;44859;51.934;15.554;2022-12-13T09:38:48;23.30;;;9.30;;
59072;SDS011;44859;51.934;15.554;2022-12-13T09:41:20;23.60;;;8.80;;
59072;SDS011;44859;51.934;15.554;2022-12-13T09:43:57;23.10;;;8.40;;
59072;SDS011;44859;51.934;15.554;2022-12-13T09:46:53;21.80;;;8.20;;
59072;SDS011;44859;51.934;15.554;2022-12-13T09:49:33;20.40;;;8.40;;
59072;SDS011;44859;51.934;15.554;2022-12-13T09:52:05;21.20;;;8.50;;
59072;SDS011;44859;51.934;15.554;2022-12-13T09:54:50;22.40;;;8.50;;
59072;SDS011;44859;51.934;15.554;2022-12-13T09:57:26;22.80;;;8.60;;
59072;SDS011;44859;51.934;15.554;2022-12-13T10:00:03;18.40;;;7.10;;
59072;SDS011;44859;51.934;15.554;2022-12-13T10:02:34;20.00;;;7.40;;
59072;SDS011;44859;51.934;15.554;2022-12-13T10:05:28;20.70;;;7.60;;
59072;SDS011;44859;51.934;15.554;2022-12-13T10:08:14;22.70;;;8.40;;
59072;SDS011;44859;51.934;15.554;2022-12-13T10:10:49;20.10;;;7.50;;
59072;SDS011;44859;51.934;15.554;2022-12-13T10:13:21;20.00;;;8.10;;
59072;SDS011;44859;51.934;15.554;2022-12-13T10:16:58;21.80;;;7.50;;
59072;SDS011;44859;51.934;15.554;2022-12-13T10:19:19;17.50;;;6.90;;
59072;SDS011;44859;51.934;15.554;2022-12-13T10:21:57;19.70;;;7.00;;
59072;SDS011;44859;51.934;15.554;2022-12-13T10:24:46;21.30;;;8.10;;
59072;SDS011;44859;51.934;15.554;2022-12-13T10:27:19;19.80;;;7.30;;
59072;SDS011;44859;51.934;15.554;2022-12-13T10:30:01;22.50;;;9.00;;
59072;SDS011;44859;51.934;15.554;2022-12-13T10:32:30;22.70;;;8.30;;
59072;SDS011;44859;51.934;15.554;2022-12-13T10:35:11;23.00;;;8.10;;
59072;SDS011;44859;51.934;15.554;2022-12-13T10:40:37;19.70;;;7.30;;
59072;SDS011;44859;51.934;15.554;2022-12-13T10:43:20;18.80;;;7.30;;
59072;SDS011;44859;51.934;15.554;2022-12-13T10:51:06;19.10;;;7.30;;
59072;SDS011;44859;51.934;15.554;2022-12-13T10:56:20;21.50;;;8.60;;
59072;SDS011;44859;51.934;15.554;2022-12-13T11:02:26;19.80;;;7.70;;
59072;SDS011;44859;51.934;15.554;2022-12-13T11:04:58;21.20;;;8.10;;
59072;SDS011;44859;51.934;15.554;2022-12-13T11:07:50;21.90;;;8.90;;
59072;SDS011;44859;51.934;15.554;2022-12-13T11:13:01;19.60;;;7.30;;
59072;SDS011;44859;51.934;15.554;2022-12-13T11:15:32;18.20;;;7.20;;
59072;SDS011;44859;51.934;15.554;2022-12-13T11:18:05;20.60;;;8.20;;
59072;SDS011;44859;51.934;15.554;2022-12-13T11:20:53;22.90;;;9.00;;
59072;SDS011;44859;51.934;15.554;2022-12-13T11:23:27;21.10;;;8.80;;
59072;SDS011;44859;51.934;15.554;2022-12-13T11:25:59;21.70;;;9.30;;
59072;SDS011;44859;51.934;15.554;2022-12-13T11:34:47;24.40;;;9.00;;
59072;SDS011;44859;51.934;15.554;2022-12-13T11:40:21;21.20;;;9.10;;
59072;SDS011;44859;51.934;15.554;2022-12-13T11:45:33;20.80;;;8.60;;
59072;SDS011;44859;51.934;15.554;2022-12-13T11:50:39;21.70;;;9.40;;
59072;SDS011;44859;51.934;15.554;2022-12-13T11:55:52;21.00;;;8.70;;
59072;SDS011;44859;51.934;15.554;2022-12-13T11:58:33;22.00;;;8.80;;
59072;SDS011;44859;51.934;15.554;2022-12-13T12:01:30;22.30;;;8.50;;
59072;SDS011;44859;51.934;15.554;2022-12-13T12:04:08;19.60;;;8.40;;
59072;SDS011;44859;51.934;15.554;2022-12-13T12:06:48;21.20;;;8.40;;
59072;SDS011;44859;51.934;15.554;2022-12-13T12:09:22;20.30;;;8.50;;
59072;SDS011;44859;51.934;15.554;2022-12-13T12:12:18;19.80;;;8.20;;
59072;SDS011;44859;51.934;15.554;2022-12-13T12:14:53;22.10;;;8.80;;
59072;SDS011;44859;51.934;15.554;2022-12-13T12:17:43;22.10;;;8.90;;
59072;SDS011;44859;51.934;15.554;2022-12-13T12:20:12;23.20;;;9.00;;
59072;SDS011;44859;51.934;15.554;2022-12-13T12:34:22;22.00;;;8.90;;
59072;SDS011;44859;51.934;15.554;2022-12-13T12:48:43;20.20;;;7.70;;
59072;SDS011;44859;51.934;15.554;2022-12-13T12:51:31;20.70;;;7.90;;
59072;SDS011;44859;51.934;15.554;2022-12-13T13:00:00;22.60;;;9.00;;
59072;SDS011;44859;51.934;15.554;2022-12-13T13:05:57;20.50;;;8.50;;
59072;SDS011;44859;51.934;15.554;2022-12-13T13:08:36;22.30;;;8.60;;
59072;SDS011;44859;51.934;15.554;2022-12-13T13:11:15;23.10;;;9.90;;
59072;SDS011;44859;51.934;15.554;2022-12-13T13:13:59;23.20;;;9.60;;
59072;SDS011;44859;51.934;15.554;2022-12-13T13:16:40;21.40;;;8.40;;
59072;SDS011;44859;51.934;15.554;2022-12-13T13:21:47;23.10;;;8.90;;
59072;SDS011;44859;51.934;15.554;2022-12-13T13:24:17;20.90;;;8.00;;
59072;SDS011;44859;51.934;15.554;2022-12-13T13:26:50;20.40;;;7.50;;
59072;SDS011;44859;51.934;15.554;2022-12-13T13:29:37;22.40;;;8.60;;
59072;SDS011;44859;51.934;15.554;2022-12-13T13:40:43;25.10;;;9.90;;
59072;SDS011;44859;51.934;15.554;2022-12-13T13:43:13;23.70;;;9.40;;
59072;SDS011;44859;51.934;15.554;2022-12-13T14:03:42;23.20;;;9.40;;
59072;SDS011;44859;51.934;15.554;2022-12-13T14:06:59;24.40;;;9.60;;
59072;SDS011;44859;51.934;15.554;2022-12-13T14:15:45;22.50;;;9.30;;
59072;SDS011;44859;51.934;15.554;2022-12-13T14:27:05;33.90;;;14.50;;
59072;SDS011;44859;51.934;15.554;2022-12-13T14:29:39;50.20;;;24.30;;
59072;SDS011;44859;51.934;15.554;2022-12-13T14:32:26;35.40;;;15.80;;
59072;SDS011;44859;51.934;15.554;2022-12-13T14:34:57;30.70;;;13.00;;
59072;SDS011;44859;51.934;15.554;2022-12-13T14:37:55;31.60;;;13.20;;
59072;SDS011;44859;51.934;15.554;2022-12-13T14:40:34;27.00;;;12.10;;
59072;SDS011;44859;51.934;15.554;2022-12-13T14:43:05;30.60;;;12.80;;
59072;SDS011;44859;51.934;15.554;2022-12-13T14:45:54;33.40;;;14.40;;
59072;SDS011;44859;51.934;15.554;2022-12-13T14:48:25;31.60;;;12.90;;
59072;SDS011;44859;51.934;15.554;2022-12-13T14:50:57;30.50;;;12.70;;
59072;SDS011;44859;51.934;15.554;2022-12-13T14:53:28;24.20;;;10.90;;
59072;SDS011;44859;51.934;15.554;2022-12-13T14:56:09;30.40;;;13.90;;
59072;SDS011;44859;51.934;15.554;2022-12-13T14:59:00;26.20;;;11.50;;
59072;SDS011;44859;51.934;15.554;2022-12-13T15:01:32;29.50;;;11.50;;
59072;SDS011;44859;51.934;15.554;2022-12-13T15:07:07;37.80;;;17.40;;
59072;SDS011;44859;51.934;15.554;2022-12-13T15:09:42;45.00;;;18.40;;
59072;SDS011;44859;51.934;15.554;2022-12-13T15:15:06;40.70;;;19.00;;
59072;SDS011;44859;51.934;15.554;2022-12-13T15:17:43;34.00;;;15.50;;
59072;SDS011;44859;51.934;15.554;2022-12-13T15:20:20;42.80;;;19.20;;
59072;SDS011;44859;51.934;15.554;2022-12-13T15:22:56;37.80;;;17.50;;
59072;SDS011;44859;51.934;15.554;2022-12-13T15:25:29;45.10;;;19.70;;
59072;SDS011;44859;51.934;15.554;2022-12-13T15:28:00;57.60;;;26.20;;
59072;SDS011;44859;51.934;15.554;2022-12-13T15:30:30;60.20;;;25.50;;
59072;SDS011;44859;51.934;15.554;2022-12-13T15:36:07;48.20;;;22.20;;
59072;SDS011;44859;51.934;15.554;2022-12-13T15:41:18;44.40;;;20.70;;
59072;SDS011;44859;51.934;15.554;2022-12-13T15:43:51;41.60;;;20.60;;
59072;SDS011;44859;51.934;15.554;2022-12-13T15:46:31;49.80;;;23.40;;
59072;SDS011;44859;51.934;15.554;2022-12-13T15:49:05;42.80;;;21.70;;
59072;SDS011;44859;51.934;15.554;2022-12-13T15:51:55;49.40;;;24.10;;
59072;SDS011;44859;51.934;15.554;2022-12-13T15:54:31;46.40;;;24.50;;
59072;SDS011;44859;51.934;15.554;2022-12-13T15:59:33;47.70;;;22.70;;
59072;SDS011;44859;51.934;15.554;2022-12-13T16:02:02;45.50;;;22.00;;
59072;SDS011;44859;51.934;15.554;2022-12-13T16:04:39;42.50;;;21.20;;
59072;SDS011;44859;51.934;15.554;2022-12-13T16:07:27;37.90;;;18.30;;
59072;SDS011;44859;51.934;15.554;2022-12-13T16:10:02;46.80;;;21.70;;
59072;SDS011;44859;51.934;15.554;2022-12-13T16:12:44;36.80;;;16.90;;
59072;SDS011;44859;51.934;15.554;2022-12-13T16:20:39;43.40;;;20.00;;
59072;SDS011;44859;51.934;15.554;2022-12-13T16:23:11;48.40;;;22.30;;
59072;SDS011;44859;51.934;15.554;2022-12-13T16:25:54;50.70;;;24.70;;
59072;SDS011;44859;51.934;15.554;2022-12-13T16:28:22;56.10;;;28.30;;
59072;SDS011;44859;51.934;15.554;2022-12-13T16:30:56;52.70;;;25.50;;
59072;SDS011;44859;51.934;15.554;2022-12-13T16:33:29;49.20;;;22.60;;
59072;SDS011;44859;51.934;15.554;2022-12-13T16:35:57;49.10;;;23.90;;
59072;SDS011;44859;51.934;15.554;2022-12-13T16:38:29;52.70;;;27.80;;
59072;SDS011;44859;51.934;15.554;2022-12-13T16:40:58;48.00;;;24.50;;
59072;SDS011;44859;51.934;15.554;2022-12-13T16:43:37;47.10;;;22.90;;
59072;SDS011;44859;51.934;15.554;2022-12-13T16:46:12;53.40;;;24.90;;
59072;SDS011;44859;51.934;15.554;2022-12-13T16:49:01;49.60;;;23.50;;
59072;SDS011;44859;51.934;15.554;2022-12-13T16:51:35;50.20;;;26.60;;
59072;SDS011;44859;51.934;15.554;2022-12-13T16:54:04;43.80;;;21.50;;
59072;SDS011;44859;51.934;15.554;2022-12-13T16:56:32;44.60;;;21.10;;
59072;SDS011;44859;51.934;15.554;2022-12-13T16:59:01;39.00;;;17.50;;
59072;SDS011;44859;51.934;15.554;2022-12-13T17:01:29;35.10;;;17.30;;
59072;SDS011;44859;51.934;15.554;2022-12-13T17:04:02;45.40;;;22.50;;
59072;SDS011;44859;51.934;15.554;2022-12-13T17:06:39;98.40;;;41.20;;
59072;SDS011;44859;51.934;15.554;2022-12-13T17:09:07;55.80;;;27.00;;
59072;SDS011;44859;51.934;15.554;2022-12-13T17:11:37;49.00;;;23.00;;
59072;SDS011;44859;51.934;15.554;2022-12-13T17:14:06;58.60;;;28.40;;
59072;SDS011;44859;51.934;15.554;2022-12-13T17:16:36;66.50;;;32.80;;
59072;SDS011;44859;51.934;15.554;2022-12-13T17:19:10;56.10;;;28.40;;
59072;SDS011;44859;51.934;15.554;2022-12-13T17:21:42;53.40;;;26.10;;
59072;SDS011;44859;51.934;15.554;2022-12-13T17:24:11;53.90;;;26.40;;
59072;SDS011;44859;51.934;15.554;2022-12-13T17:26:43;58.70;;;28.10;;
59072;SDS011;44859;51.934;15.554;2022-12-13T17:29:31;51.20;;;23.60;;
59072;SDS011;44859;51.934;15.554;2022-12-13T17:32:01;53.70;;;25.90;;
59072;SDS011;44859;51.934;15.554;2022-12-13T17:34:29;56.00;;;25.50;;
59072;SDS011;44859;51.934;15.554;2022-12-13T17:36:58;58.50;;;27.20;;
59072;SDS011;44859;51.934;15.554;2022-12-13T17:39:31;57.80;;;24.10;;
59072;SDS011;44859;51.934;15.554;2022-12-13T17:42:00;63.50;;;27.50;;
59072;SDS011;44859;51.934;15.554;2022-12-13T17:44:28;61.00;;;27.40;;
59072;SDS011;44859;51.934;15.554;2022-12-13T17:46:57;57.60;;;25.50;;
59072;SDS011;44859;51.934;15.554;2022-12-13T17:49:25;68.70;;;28.70;;
59072;SDS011;44859;51.934;15.554;2022-12-13T17:51:53;97.60;;;38.70;;
59072;SDS011;44859;51.934;15.554;2022-12-13T17:54:23;78.40;;;33.00;;